Time;durP1;ratioP1;P1;durP2;ratioP2;P2;SDS_P1;SDS_P2;PMS_P1;PMS_P2;Temp;Humidity;BMP_temperature;BMP_pressure;BME280_temperature;BME280_humidity;BME280_pressure;Samples;Min_cycle;Max_cycle;Signal;HPM_P1;HPM_P2
2021/05/31 00:00:48;;;;;;;;;11.00;9.00;;;;;18.04;47.94;101774.78;5030801;28;55504;-76
2021/05/31 00:03:13;;;;;;;;;9.00;9.00;;;;;18.02;47.69;101773.19;5031487;28;45401;-76
2021/05/31 00:05:39;;;;;;;;;10.25;7.75;;;;;17.97;48.22;101779.63;5032743;28;45406;-76
2021/05/31 00:08:04;;;;;;;;;8.25;8.25;;;;;17.94;48.47;101776.25;5031986;28;45674;-76
2021/05/31 00:10:29;;;;;;;;;10.00;9.00;;;;;17.84;48.01;101762.63;5035034;28;45450;-76
2021/05/31 00:12:55;;;;;;;;;8.75;8.50;;;;;17.85;48.46;101769.66;5034969;28;45344;-76
2021/05/31 00:15:21;;;;;;;;;10.75;8.75;;;;;17.74;48.35;101756.13;5033312;28;45929;-76
2021/05/31 00:17:48;;;;;;;;;15.50;9.00;;;;;17.79;48.40;101766.50;5034682;28;45477;-75
2021/05/31 00:20:15;;;;;;;;;11.00;8.25;;;;;17.75;48.64;101763.19;5034151;28;45454;-76
2021/05/31 00:22:40;;;;;;;;;13.00;11.75;;;;;17.73;48.53;101763.25;5036734;28;45379;-76
2021/05/31 00:25:08;;;;;;;;;8.75;8.00;;;;;17.71;49.17;101766.91;5034655;28;45857;-76
2021/05/31 00:27:33;;;;;;;;;8.75;8.25;;;;;17.66;48.77;101766.31;5034705;28;45516;-76
2021/05/31 00:29:59;;;;;;;;;13.50;10.00;;;;;17.67;48.85;101768.03;5034452;28;45523;-76
2021/05/31 00:32:24;;;;;;;;;12.00;7.75;;;;;17.64;48.95;101760.22;5032739;28;45462;-76
2021/05/31 00:34:49;;;;;;;;;10.50;9.50;;;;;17.61;49.14;101760.41;5036579;28;45426;-76
2021/05/31 00:37:16;;;;;;;;;9.00;9.00;;;;;17.45;48.75;101740.00;5029181;28;49060;-76
2021/05/31 00:39:41;;;;;;;;;9.50;9.25;;;;;17.51;49.12;101751.22;5034293;28;45490;-76
2021/05/31 00:42:07;;;;;;;;;8.75;8.50;;;;;17.54;49.35;101762.56;5033017;28;45429;-76
2021/05/31 00:44:32;;;;;;;;;10.00;9.25;;;;;17.51;49.50;101754.75;5034621;28;46302;-76
2021/05/31 00:46:58;;;;;;;;;12.00;9.25;;;;;17.28;49.55;101717.94;5034414;28;45335;-76
2021/05/31 00:49:25;;;;;;;;;11.00;9.75;;;;;17.47;49.43;101756.69;5035985;28;45549;-76
2021/05/31 00:51:51;;;;;;;;;10.25;8.75;;;;;17.42;49.47;101748.13;5034542;28;45553;-76
2021/05/31 00:54:18;;;;;;;;;6.75;6.75;;;;;17.40;49.58;101747.38;5033906;28;45365;-76
2021/05/31 00:56:45;;;;;;;;;8.50;7.00;;;;;17.29;49.61;101733.81;5033789;28;45399;-76
2021/05/31 00:59:10;;;;;;;;;11.75;10.75;;;;;17.35;50.33;101746.75;5033159;28;45498;-76
2021/05/31 01:01:36;;;;;;;;;8.75;8.25;;;;;17.33;50.16;101755.75;5034440;28;45368;-76
2021/05/31 01:04:02;;;;;;;;;10.00;8.25;;;;;17.30;50.14;101754.13;5033526;28;45509;-76
2021/05/31 01:06:33;;;;;;;;;8.00;8.00;;;;;17.28;50.07;101753.38;5034545;28;46217;-75
2021/05/31 01:09:05;;;;;;;;;9.25;7.50;;;;;17.19;50.45;101737.91;5032274;28;45681;-76
2021/05/31 01:11:52;;;;;;;;;7.25;6.75;;;;;17.22;50.17;101740.38;5034055;28;45564;-77
2021/05/31 01:14:35;;;;;;;;;7.00;6.75;;;;;17.17;50.26;101745.09;5018691;28;45344;-76
2021/05/31 01:17:34;;;;;;;;;9.50;7.00;;;;;17.11;50.12;101740.13;5031704;28;45470;-76
2021/05/31 01:20:22;;;;;;;;;9.25;7.25;;;;;17.12;50.55;101744.50;5032434;28;45503;-76
2021/05/31 01:22:48;;;;;;;;;7.00;7.00;;;;;17.08;50.45;101735.00;5032950;28;45344;-76
2021/05/31 01:25:16;;;;;;;;;9.75;6.75;;;;;17.04;50.60;101744.06;5033265;28;45908;-76
2021/05/31 01:27:46;;;;;;;;;7.50;7.50;;;;;16.99;50.54;101733.69;5033752;28;45300;-76
2021/05/31 01:30:16;;;;;;;;;8.50;7.50;;;;;17.00;50.48;101743.34;5033843;28;45525;-76
2021/05/31 01:32:46;;;;;;;;;8.75;7.00;;;;;16.97;50.59;101740.03;5033935;28;45536;-76
2021/05/31 01:35:17;;;;;;;;;9.00;7.00;;;;;16.94;50.85;101741.88;5033378;28;45605;-76
2021/05/31 01:37:44;;;;;;;;;9.00;7.75;;;;;16.89;51.20;101737.78;5036112;28;45339;-76
2021/05/31 01:40:12;;;;;;;;;6.75;6.75;;;;;16.86;50.87;101730.84;5033976;28;45811;-76
2021/05/31 01:42:38;;;;;;;;;8.25;6.00;;;;;16.83;50.77;101728.34;5033897;28;45705;-76
2021/05/31 01:45:09;;;;;;;;;9.50;8.50;;;;;16.82;51.33;101731.94;5033349;28;45955;-76
2021/05/31 01:47:35;;;;;;;;;8.75;7.00;;;;;16.78;51.28;101734.84;5031571;28;45586;-76
2021/05/31 01:50:03;;;;;;;;;10.25;6.25;;;;;16.76;51.13;101726.06;5034279;28;45521;-76
2021/05/31 01:52:31;;;;;;;;;4.25;4.00;;;;;16.70;50.98;101725.47;5033999;28;45237;-76
2021/05/31 01:54:57;;;;;;;;;5.75;5.00;;;;;16.68;51.32;101723.81;5033433;28;46153;-76
2021/05/31 01:57:24;;;;;;;;;9.00;7.75;;;;;16.65;51.12;101721.31;5025387;28;45539;-76
2021/05/31 01:59:51;;;;;;;;;11.50;9.25;;;;;16.58;51.60;101715.47;5046443;28;45330;-76
2021/05/31 02:02:17;;;;;;;;;6.00;6.00;;;;;16.48;51.11;101686.84;5032473;28;45421;-76
2021/05/31 02:04:43;;;;;;;;;6.25;6.25;;;;;16.58;51.37;101712.81;5035169;28;46923;-76
2021/05/31 02:07:08;;;;;;;;;8.50;8.00;;;;;16.46;51.17;101704.66;5032913;28;45435;-76
2021/05/31 02:09:34;;;;;;;;;11.25;6.00;;;;;16.51;50.81;101711.44;5033521;28;45434;-76
2021/05/31 02:12:04;;;;;;;;;7.50;6.00;;;;;16.48;50.71;101708.91;5033180;28;45426;-76
2021/05/31 02:14:48;;;;;;;;;7.75;6.50;;;;;16.48;50.98;101710.72;5032878;28;45389;-76
2021/05/31 02:17:40;;;;;;;;;5.00;4.75;;;;;16.41;50.64;101699.56;5033014;28;45422;-76
2021/05/31 02:20:09;;;;;;;;;9.25;8.25;;;;;16.43;50.87;101703.84;5029486;28;45556;-76
2021/05/31 02:22:40;;;;;;;;;7.50;6.75;;;;;16.40;50.80;101709.34;5034891;28;45994;-76
2021/05/31 02:25:06;;;;;;;;;8.25;7.00;;;;;16.37;50.84;101706.84;5032886;28;46236;-75
2021/05/31 02:27:32;;;;;;;;;5.00;5.00;;;;;16.35;50.83;101714.03;5031723;28;45461;-76
2021/05/31 02:29:59;;;;;;;;;7.00;6.00;;;;;16.34;50.95;101711.44;5033168;28;45584;-76
2021/05/31 02:32:27;;;;;;;;;6.50;6.00;;;;;16.30;51.02;101707.25;5032475;28;45379;-76
2021/05/31 02:34:53;;;;;;;;;7.75;7.50;;;;;16.28;51.24;101706.44;5033992;28;46561;-76
2021/05/31 02:37:32;;;;;;;;;6.00;5.25;;;;;16.25;50.96;101712.78;5033179;28;45500;-76
2021/05/31 02:39:58;;;;;;;;;7.00;5.00;;;;;16.22;51.10;101710.25;5033157;28;46744;-76
2021/05/31 02:42:23;;;;;;;;;5.75;5.75;;;;;16.05;51.03;101678.47;5032810;28;45572;-76
2021/05/31 02:44:48;;;;;;;;;5.50;4.75;;;;;16.16;51.13;101707.94;5032567;28;48601;-76
2021/05/31 02:47:14;;;;;;;;;8.00;6.00;;;;;16.15;50.81;101715.03;5022483;28;53663;-76
2021/05/31 02:49:39;;;;;;;;;7.00;6.00;;;;;16.09;51.37;101715.34;5034320;28;45437;-76
2021/05/31 02:52:04;;;;;;;;;6.00;6.00;;;;;16.04;51.25;101704.13;5032289;28;45480;-75
2021/05/31 02:54:30;;;;;;;;;6.00;5.50;;;;;16.05;51.51;101713.78;5032246;28;46176;-76
2021/05/31 02:56:55;;;;;;;;;7.75;5.00;;;;;16.04;51.49;101717.38;5032694;28;45425;-76
2021/05/31 02:59:20;;;;;;;;;7.50;6.75;;;;;16.03;51.43;101712.16;5032623;28;45660;-76
2021/05/31 03:01:46;;;;;;;;;6.75;6.25;;;;;16.02;51.57;101719.22;5034420;28;45408;-76
2021/05/31 03:04:11;;;;;;;;;9.25;6.00;;;;;15.87;51.58;101699.66;5032034;28;46199;-76
2021/05/31 03:06:36;;;;;;;;;7.00;7.00;;;;;15.97;51.75;101723.91;5032007;28;50463;-76
2021/05/31 03:09:02;;;;;;;;;10.00;6.00;;;;;15.94;51.91;101717.91;5030783;28;45291;-76
2021/05/31 03:11:27;;;;;;;;;6.75;6.00;;;;;15.87;52.15;101720.88;5032167;28;45387;-78
2021/05/31 03:13:52;;;;;;;;;7.50;6.75;;;;;15.84;52.00;101709.56;5033172;28;55723;-76
2021/05/31 03:16:18;;;;;;;;;4.25;4.25;;;;;15.89;52.20;101712.84;5028867;28;45457;-76
2021/05/31 03:18:43;;;;;;;;;8.50;6.50;;;;;15.87;52.21;101717.38;5031504;28;45674;-76
2021/05/31 03:21:08;;;;;;;;;6.00;6.00;;;;;15.79;52.17;101712.41;5028793;28;52809;-76
2021/05/31 03:23:34;;;;;;;;;6.75;6.25;;;;;15.83;52.19;101721.09;5031953;28;45974;-76
2021/05/31 03:25:59;;;;;;;;;10.00;7.75;;;;;15.78;52.30;101716.00;5033429;28;45461;-76
2021/05/31 03:28:24;;;;;;;;;8.50;8.00;;;;;15.78;52.41;101725.75;5033700;28;45473;-76
2021/05/31 03:30:50;;;;;;;;;8.00;8.00;;;;;15.76;52.45;101725.81;5032505;28;45533;-76
2021/05/31 03:33:15;;;;;;;;;9.00;7.50;;;;;15.55;52.50;101695.03;5032134;28;45638;-76
2021/05/31 03:35:40;;;;;;;;;8.50;6.50;;;;;15.71;52.61;101733.13;5031689;28;45890;-76
2021/05/31 03:38:06;;;;;;;;;7.50;7.50;;;;;15.66;52.72;101721.94;5032772;28;45389;-76
2021/05/31 03:40:31;;;;;;;;;6.00;6.00;;;;;15.70;52.46;101733.22;5034116;28;45298;-76
2021/05/31 03:42:56;;;;;;;;;12.75;8.00;;;;;15.67;52.68;101734.22;5032115;28;46284;-76
2021/05/31 03:45:23;;;;;;;;;9.75;8.75;;;;;15.58;52.78;101721.38;5032903;28;45547;-76
2021/05/31 03:47:49;;;;;;;;;8.25;6.00;;;;;15.54;52.86;101717.16;5029417;28;45872;-76
2021/05/31 03:50:15;;;;;;;;;9.00;6.00;;;;;15.62;52.92;101738.88;5035268;28;45453;-76
2021/05/31 03:52:41;;;;;;;;;9.25;7.75;;;;;15.59;52.79;101737.19;5037926;28;45370;-76
2021/05/31 03:55:08;;;;;;;;;8.75;8.50;;;;;15.56;53.20;101739.16;5034618;28;45493;-76
2021/05/31 03:57:36;;;;;;;;;8.50;7.00;;;;;15.56;53.12;101745.31;5035500;28;45477;-76
2021/05/31 04:00:08;;;;;;;;;10.50;8.50;;;;;15.55;53.36;101740.94;5035054;28;45339;-76
2021/05/31 04:02:37;;;;;;;;;11.75;8.00;;;;;15.53;53.53;101744.59;5035772;28;45749;-75
2021/05/31 04:05:03;;;;;;;;;9.00;7.00;;;;;15.51;53.75;101742.03;5035387;28;45376;-76
2021/05/31 04:12:56;;;;;;;;;8.25;7.25;;;;;15.46;53.53;101745.81;5035287;28;45569;-76
2021/05/31 04:15:22;;;;;;;;;10.00;8.25;;;;;15.44;53.51;101745.88;5033504;28;45293;-76
2021/05/31 04:17:47;;;;;;;;;10.25;6.50;;;;;15.42;53.17;101744.25;5034553;28;45469;-76
2021/05/31 04:20:14;;;;;;;;;8.25;8.25;;;;;15.40;53.75;101744.31;5035245;28;45565;-75
2021/05/31 04:22:41;;;;;;;;;8.75;5.75;;;;;15.31;53.73;101723.56;5037130;28;45531;-76
2021/05/31 04:25:06;;;;;;;;;8.00;8.00;;;;;15.37;53.54;101728.56;5033223;28;45992;-76
2021/05/31 04:27:32;;;;;;;;;8.25;8.25;;;;;15.39;53.69;101732.00;5036024;28;45363;-76
2021/05/31 04:29:58;;;;;;;;;9.75;6.75;;;;;15.41;53.08;101727.50;5034845;28;45398;-76
2021/05/31 04:32:23;;;;;;;;;6.75;6.00;;;;;15.39;53.27;101727.53;5034945;28;45474;-77
2021/05/31 04:34:49;;;;;;;;;8.25;8.00;;;;;15.36;53.48;101727.72;5037008;28;45395;-76
2021/05/31 04:37:14;;;;;;;;;6.75;6.75;;;;;15.33;53.74;101716.41;5035055;28;45573;-76
2021/05/31 04:39:39;;;;;;;;;7.50;7.25;;;;;15.43;53.26;101732.72;5034976;28;45450;-76
2021/05/31 04:42:06;;;;;;;;;10.25;9.50;;;;;15.47;53.35;101734.28;5033062;28;46229;-76
2021/05/31 04:44:34;;;;;;;;;8.75;7.00;;;;;15.46;53.28;101737.88;5034574;28;45358;-76
2021/05/31 04:47:00;;;;;;;;;6.50;6.50;;;;;15.36;53.28;101721.56;5034632;28;45597;-76
2021/05/31 04:49:25;;;;;;;;;13.50;8.75;;;;;15.50;53.50;101732.34;5036403;28;45375;-75
2021/05/31 04:51:51;;;;;;;;;11.00;7.00;;;;;15.53;53.62;101729.56;5034216;28;47329;-76
2021/05/31 04:54:16;;;;;;;;;11.25;7.00;;;;;15.56;53.58;101732.06;5034383;28;45468;-76
2021/05/31 04:56:42;;;;;;;;;8.50;6.50;;;;;15.59;53.58;101733.69;5034060;28;45493;-76
2021/05/31 04:59:07;;;;;;;;;12.00;8.00;;;;;15.52;53.64;101721.69;5034423;28;45371;-76
2021/05/31 05:01:34;;;;;;;;;8.50;7.00;;;;;15.67;53.59;101742.19;5035825;28;47341;-75
2021/05/31 05:04:00;;;;;;;;;9.00;6.50;;;;;15.71;53.82;101741.06;5033210;28;45683;-76
2021/05/31 05:06:25;;;;;;;;;11.00;9.00;;;;;15.74;53.75;101737.44;5031210;28;45358;-76
2021/05/31 05:08:53;;;;;;;;;11.25;7.50;;;;;15.79;53.48;101738.94;5034593;28;45456;-76
2021/05/31 05:11:18;;;;;;;;;8.25;7.00;;;;;15.74;53.13;101727.69;5028780;28;46205;-76
2021/05/31 05:13:44;;;;;;;;;8.50;7.25;;;;;15.82;53.36;101741.44;5035964;28;53208;-76
2021/05/31 05:16:09;;;;;;;;;10.25;10.25;;;;;15.83;53.21;101731.69;5033185;28;45422;-75
2021/05/31 05:18:46;;;;;;;;;9.50;8.00;;;;;15.88;53.10;101735.84;5032548;28;45517;-76
2021/05/31 05:21:12;;;;;;;;;12.00;7.00;;;;;15.94;53.32;101732.03;5032282;28;47038;-76
2021/05/31 05:23:37;;;;;;;;;12.50;8.75;;;;;16.02;53.16;101737.78;5034003;28;45395;-76
2021/05/31 05:26:03;;;;;;;;;9.25;7.75;;;;;16.09;53.29;101736.56;5034445;28;45480;-76
2021/05/31 05:28:28;;;;;;;;;8.00;8.00;;;;;16.09;53.07;101725.97;5033503;28;45490;-76
2021/05/31 05:30:53;;;;;;;;;9.00;7.00;;;;;16.20;52.88;101736.03;5032231;28;45629;-75
2021/05/31 05:33:19;;;;;;;;;9.75;7.00;;;;;16.24;53.06;101740.25;5033253;28;45462;-76
2021/05/31 05:35:53;;;;;;;;;8.00;7.00;;;;;16.30;52.83;101734.63;5033920;28;45443;-75
2021/05/31 05:48:29;;;;;;;;;10.75;9.00;;;;;17.92;50.77;101732.97;5026271;28;45262;-75
2021/05/31 05:51:04;;;;;;;;;9.25;8.50;;;;;18.31;49.99;101723.56;5031186;28;46010;-76
2021/05/31 05:53:31;;;;;;;;;8.75;7.00;;;;;18.77;49.57;101733.19;5030892;28;45521;-76
2021/05/31 05:55:56;;;;;;;;;7.50;6.75;;;;;19.14;49.07;101732.69;5033581;28;45448;-76
2021/05/31 05:58:27;;;;;;;;;8.50;7.25;;;;;19.36;48.39;101735.69;5034279;28;45612;-74
2021/05/31 06:00:52;;;;;;;;;7.75;7.00;;;;;19.55;48.21;101732.72;5031919;28;45571;-77
2021/05/31 06:03:17;;;;;;;;;9.00;9.00;;;;;19.51;47.71;101737.38;5031000;28;45481;-76
2021/05/31 06:05:43;;;;;;;;;9.00;7.00;;;;;19.44;47.20;101728.09;5032102;28;48771;-76
2021/05/31 06:08:08;;;;;;;;;9.00;9.00;;;;;19.42;47.18;101729.13;5031163;28;52723;-78
2021/05/31 06:10:33;;;;;;;;;8.00;7.25;;;;;19.29;47.37;101721.91;5032651;28;56226;-75
2021/05/31 06:12:59;;;;;;;;;7.75;7.75;;;;;19.17;46.97;101728.03;5032821;28;45552;-75
2021/05/31 06:15:24;;;;;;;;;6.00;6.00;;;;;19.06;46.93;101716.34;5031758;28;51569;-76
2021/05/31 06:17:49;;;;;;;;;7.50;7.50;;;;;18.97;47.15;101717.78;5032966;28;45316;-76
2021/05/31 06:20:15;;;;;;;;;8.25;8.00;;;;;18.87;47.09;101725.47;5031298;28;51638;-75
2021/05/31 06:22:40;;;;;;;;;7.25;7.25;;;;;18.84;47.50;101715.00;5034981;28;45579;-76
2021/05/31 06:25:10;;;;;;;;;12.00;7.00;;;;;18.84;47.25;101716.81;5025622;28;45509;-77
2021/05/31 06:27:36;;;;;;;;;9.50;8.00;;;;;18.87;47.17;101722.81;5026513;28;45667;-76
2021/05/31 06:30:01;;;;;;;;;7.50;7.50;;;;;18.86;47.42;101722.91;5031055;28;46019;-77
2021/05/31 06:32:27;;;;;;;;;7.50;6.00;;;;;18.91;47.07;101729.66;5031513;28;45440;-76
2021/05/31 06:34:52;;;;;;;;;9.00;8.00;;;;;18.95;47.23;101732.97;5033855;28;46521;-76
2021/05/31 06:37:17;;;;;;;;;9.50;7.00;;;;;18.97;47.07;101725.75;5033533;28;45673;-76
2021/05/31 06:39:43;;;;;;;;;9.00;7.75;;;;;18.89;47.08;101712.06;5031769;28;47041;-76
2021/05/31 06:42:08;;;;;;;;;10.00;7.50;;;;;18.93;46.69;101713.59;5032755;28;45788;-76
2021/05/31 06:44:34;;;;;;;;;6.25;6.00;;;;;18.95;46.75;101719.66;5030120;28;45399;-76
2021/05/31 06:46:59;;;;;;;;;7.50;7.50;;;;;19.02;46.93;101727.19;5029104;28;49289;-76
2021/05/31 06:49:24;;;;;;;;;8.25;8.25;;;;;19.06;46.86;101724.34;5034644;28;50602;-76
2021/05/31 06:51:50;;;;;;;;;8.00;8.00;;;;;19.06;46.71;101717.22;5029956;28;45437;-76
2021/05/31 06:54:15;;;;;;;;;8.25;7.25;;;;;19.18;46.83;101726.22;5027842;28;45586;-76
2021/05/31 06:56:41;;;;;;;;;9.25;8.00;;;;;19.23;46.83;101724.97;5032997;28;45362;-76
2021/05/31 06:59:07;;;;;;;;;9.00;8.00;;;;;19.31;46.67;101719.16;5032677;28;45509;-75
2021/05/31 07:01:32;;;;;;;;;8.25;6.75;;;;;19.35;46.76;101715.34;5031363;28;45501;-76
2021/05/31 07:03:57;;;;;;;;;8.25;8.00;;;;;19.44;46.67;101706.75;5032105;28;46706;-76
2021/05/31 07:06:23;;;;;;;;;6.75;5.75;;;;;19.53;46.41;101714.16;5032651;28;45728;-75
2021/05/31 07:08:48;;;;;;;;;9.00;8.25;;;;;19.56;46.02;101705.94;5032588;28;45763;-75
2021/05/31 07:11:17;;;;;;;;;8.75;8.00;;;;;19.61;45.91;101699.50;5027323;28;45334;-76
2021/05/31 07:13:44;;;;;;;;;9.50;6.75;;;;;19.89;45.66;101711.84;5034017;28;45352;-75
2021/05/31 07:16:14;;;;;;;;;7.25;7.25;;;;;20.56;45.88;101699.28;5032995;28;45442;-75
2021/05/31 07:18:39;;;;;;;;;9.50;7.50;;;;;20.93;44.37;101710.91;5031074;28;45466;-75
2021/05/31 07:21:04;;;;;;;;;9.00;8.75;;;;;20.89;44.49;101698.75;5035107;28;45263;-75
2021/05/31 07:23:30;;;;;;;;;9.75;8.00;;;;;20.84;44.32;101696.41;5035533;28;45642;-75
2021/05/31 07:25:55;;;;;;;;;10.25;5.00;;;;;20.93;44.07;101696.69;5036438;28;45470;-75
2021/05/31 07:28:21;;;;;;;;;9.00;8.25;;;;;21.67;43.23;101697.59;5036838;28;46057;-75
2021/05/31 07:30:46;;;;;;;;;5.25;4.75;;;;;22.25;42.61;101690.53;5034984;28;45620;-75
2021/05/31 07:33:13;;;;;;;;;8.75;7.75;;;;;23.05;42.08;101698.53;5035682;28;45713;-75
2021/05/31 07:35:40;;;;;;;;;8.00;6.75;;;;;23.07;41.07;101684.00;5029785;28;45406;-75
2021/05/31 07:38:06;;;;;;;;;6.25;5.00;;;;;23.27;40.64;101700.31;5035435;28;46362;-75
2021/05/31 07:40:31;;;;;;;;;8.00;8.00;;;;;23.76;40.28;101696.31;5037162;28;45492;-75
2021/05/31 07:42:57;;;;;;;;;7.50;7.00;;;;;24.43;39.72;101704.91;5034143;28;45371;-74
2021/05/31 07:45:22;;;;;;;;;8.75;7.00;;;;;25.51;38.37;101696.25;5034849;28;45502;-76
2021/05/31 07:47:48;;;;;;;;;4.00;4.00;;;;;26.60;36.90;101689.69;5035054;28;45901;-75
2021/05/31 07:50:15;;;;;;;;;6.50;6.00;;;;;27.61;35.66;101685.19;5035354;28;45351;-75
2021/05/31 07:52:41;;;;;;;;;7.50;6.25;;;;;28.90;34.64;101674.66;5036904;28;45768;-75
2021/05/31 07:55:11;;;;;;;;;6.00;6.00;;;;;30.60;32.74;101673.13;5035443;28;45338;-75
2021/05/31 07:57:37;;;;;;;;;8.75;7.00;;;;;31.98;31.29;101671.53;5035034;28;47221;-75
2021/05/31 08:00:05;;;;;;;;;6.25;4.75;;;;;33.37;30.03;101673.50;5034830;28;45846;-75
2021/05/31 08:02:30;;;;;;;;;7.75;6.50;;;;;34.97;28.36;101676.44;5034979;28;45349;-75
2021/05/31 08:04:56;;;;;;;;;6.75;5.00;;;;;36.74;26.58;101681.41;5036495;28;45378;-75
2021/05/31 08:07:21;;;;;;;;;7.00;5.50;;;;;38.06;25.03;101676.25;5035584;28;45392;-76
2021/05/31 08:09:48;;;;;;;;;4.00;3.25;;;;;37.93;22.67;101679.94;5034951;28;45442;-75
2021/05/31 08:12:14;;;;;;;;;5.00;4.50;;;;;36.87;24.71;101688.75;5035709;28;45438;-76
2021/05/31 08:14:39;;;;;;;;;6.00;4.00;;;;;35.79;23.77;101686.34;5035299;28;45381;-76
2021/05/31 08:17:05;;;;;;;;;4.50;4.00;;;;;35.41;24.17;101675.13;5034775;28;46221;-77
2021/05/31 08:19:32;;;;;;;;;6.00;4.50;;;;;36.21;23.56;101683.41;5037009;28;45450;-75
2021/05/31 08:21:58;;;;;;;;;6.00;5.75;;;;;38.00;23.73;101672.47;5034899;28;45478;-75
2021/05/31 08:24:24;;;;;;;;;6.25;5.00;;;;;39.97;21.73;101674.81;5034878;28;45514;-75
2021/05/31 08:26:49;;;;;;;;;3.75;3.75;;;;;40.75;19.83;101673.59;5034524;28;45415;-75
2021/05/31 08:29:14;;;;;;;;;5.00;3.25;;;;;41.44;18.85;101668.88;5034870;28;45501;-76
2021/05/31 08:31:40;;;;;;;;;4.75;4.75;;;;;42.52;17.52;101670.59;5035387;28;45384;-76
2021/05/31 08:34:05;;;;;;;;;5.25;4.00;;;;;42.32;17.91;101665.63;5034531;28;45532;-76
2021/05/31 08:36:31;;;;;;;;;3.00;3.00;;;;;41.88;17.40;101671.03;5033761;28;45962;-75
2021/05/31 08:38:59;;;;;;;;;3.50;3.50;;;;;41.54;16.87;101678.44;5033307;28;51955;-76
2021/05/31 08:41:26;;;;;;;;;4.25;4.25;;;;;42.39;16.48;101677.31;5035033;28;45629;-75
2021/05/31 08:43:52;;;;;;;;;4.75;3.25;;;;;43.28;16.11;101667.91;5036711;28;45256;-76
2021/05/31 08:46:17;;;;;;;;;2.00;2.00;;;;;44.02;15.06;101656.94;5032172;28;45609;-75
2021/05/31 08:48:43;;;;;;;;;3.25;3.25;;;;;45.44;14.83;101666.94;5034578;28;45536;-76
2021/05/31 08:51:08;;;;;;;;;5.00;5.00;;;;;46.49;14.02;101657.88;5034954;28;45716;-76
2021/05/31 08:53:35;;;;;;;;;4.25;4.00;;;;;47.20;13.22;101665.03;5036574;28;45583;-75
2021/05/31 08:56:02;;;;;;;;;5.00;2.00;;;;;47.45;12.61;101652.84;5035555;28;46197;-73
2021/05/31 08:58:27;;;;;;;;;4.50;3.25;;;;;47.62;11.91;101663.59;5034533;28;45592;-73
2021/05/31 09:00:53;;;;;;;;;4.00;4.00;;;;;47.82;12.10;101664.25;5034132;28;45378;-75
2021/05/31 09:03:18;;;;;;;;;3.50;2.75;;;;;48.32;11.30;101669.56;5034081;28;45634;-74
2021/05/31 09:05:45;;;;;;;;;2.50;2.50;;;;;48.24;11.16;101673.00;5034536;28;46805;-78
2021/05/31 09:08:19;;;;;;;;;3.50;3.50;;;;;48.23;11.11;101661.00;5033943;28;45637;-77
2021/05/31 09:10:53;;;;;;;;;3.25;3.25;;;;;48.44;11.20;101656.03;5036021;28;45344;-74
2021/05/31 09:13:25;;;;;;;;;3.25;3.25;;;;;48.95;11.41;101651.72;5035064;28;45441;-76
2021/05/31 09:16:14;;;;;;;;;5.25;5.00;;;;;49.70;11.25;101650.78;5034286;28;45712;-73
2021/05/31 09:18:51;;;;;;;;;4.25;4.25;;;;;50.43;10.36;101654.69;5033962;28;45616;-73
2021/05/31 09:21:26;;;;;;;;;2.50;2.50;;;;;50.74;10.46;101655.66;5034247;28;45510;-76
2021/05/31 09:24:04;;;;;;;;;3.50;3.25;;;;;50.21;9.89;101652.63;5033940;28;45466;-73
2021/05/31 09:26:30;;;;;;;;;1.00;1.00;;;;;49.84;10.25;101648.88;5018267;28;47374;-73
2021/05/31 09:29:04;;;;;;;;;4.00;4.00;;;;;49.04;10.66;101647.94;5035092;28;45345;-73
2021/05/31 09:31:31;;;;;;;;;3.50;3.50;;;;;48.17;10.70;101631.53;5035797;28;45498;-73
2021/05/31 09:34:04;;;;;;;;;4.50;4.50;;;;;47.13;11.44;101631.94;5033816;28;47665;-76
2021/05/31 09:36:31;;;;;;;;;4.50;3.75;;;;;46.05;11.27;101639.13;5027856;28;45899;-74
2021/05/31 09:38:58;;;;;;;;;5.00;4.00;;;;;44.60;12.15;101640.38;5033578;28;45438;-76
2021/05/31 09:41:26;;;;;;;;;4.50;3.75;;;;;43.10;12.71;101636.75;5034216;28;45348;-76
2021/05/31 09:44:00;;;;;;;;;4.25;4.25;;;;;41.85;13.04;101649.44;5035041;28;45442;-76
2021/05/31 09:46:40;;;;;;;;;6.25;4.50;;;;;40.56;13.99;101639.00;5035283;28;46589;-73
2021/05/31 09:49:20;;;;;;;;;5.00;3.75;;;;;39.74;14.57;101641.78;5033448;28;45489;-76
2021/05/31 09:52:07;;;;;;;;;5.25;3.25;;;;;38.88;15.32;101641.97;5033340;28;45312;-76
2021/05/31 09:54:39;;;;;;;;;2.00;2.00;;;;;38.26;15.48;101621.09;5033667;28;46777;-76
2021/05/31 09:57:19;;;;;;;;;4.75;4.75;;;;;37.78;15.97;101627.25;5033594;28;46077;-78
2021/05/31 10:00:29;;;;;;;;;3.25;3.25;;;;;37.30;16.21;101625.09;5033386;28;45411;-73
2021/05/31 10:10:17;;;;;;;;;4.75;3.00;;;;;35.80;17.46;101638.78;5034236;28;45371;-76
2021/05/31 10:12:43;;;;;;;;;3.75;3.75;;;;;35.45;17.81;101646.34;5033420;28;45478;-76
2021/05/31 10:15:10;;;;;;;;;3.00;3.00;;;;;34.91;17.96;101629.97;5032818;28;45486;-77
2021/05/31 10:17:37;;;;;;;;;5.00;3.00;;;;;34.44;17.66;101626.16;5032599;28;46199;-77
2021/05/31 10:20:04;;;;;;;;;4.75;4.75;;;;;34.15;18.40;101635.44;5032931;28;45784;-76
2021/05/31 10:22:34;;;;;;;;;6.00;3.75;;;;;33.86;18.25;101623.66;5035320;28;45335;-76
2021/05/31 10:25:06;;;;;;;;;3.50;3.50;;;;;33.67;19.07;101622.47;5033334;28;45367;-76
2021/05/31 10:27:34;;;;;;;;;4.00;4.00;;;;;33.43;19.14;101615.53;5033311;28;46409;-76
2021/05/31 10:30:01;;;;;;;;;2.75;1.50;;;;;33.28;18.79;101611.97;5033740;28;45618;-76
2021/05/31 10:32:26;;;;;;;;;3.25;3.25;;;;;32.98;19.21;101617.53;5033428;28;45328;-77
2021/05/31 10:34:53;;;;;;;;;4.00;3.25;;;;;32.47;19.12;101603.91;5034003;28;45416;-76
2021/05/31 10:37:24;;;;;;;;;6.00;6.00;;;;;32.22;19.63;101618.78;5032080;28;46336;-78
2021/05/31 10:40:09;;;;;;;;;4.00;3.50;;;;;32.05;19.60;101619.97;5033167;28;45542;-77
2021/05/31 10:43:05;;;;;;;;;3.25;3.25;;;;;31.68;20.34;101608.03;5033193;28;45534;-78
2021/05/31 10:45:30;;;;;;;;;5.50;4.25;;;;;31.46;20.09;101614.34;5031514;28;45658;-76
2021/05/31 10:48:08;;;;;;;;;3.00;3.00;;;;;31.23;19.85;101612.47;5033130;28;46464;-76
2021/05/31 10:50:49;;;;;;;;;5.75;4.00;;;;;30.89;20.41;101613.66;5032629;28;45786;-76
2021/05/31 10:53:18;;;;;;;;;5.00;4.00;;;;;30.62;20.66;101608.69;5032640;28;45362;-75
2021/05/31 10:55:58;;;;;;;;;3.00;3.00;;;;;30.41;20.76;101601.97;5034232;28;45458;-76
2021/05/31 10:58:32;;;;;;;;;5.00;4.00;;;;;30.25;21.31;101609.31;5034353;28;45481;-76
2021/05/31 11:01:01;;;;;;;;;4.00;4.00;;;;;30.07;21.77;101594.09;5033013;28;45765;-76
2021/05/31 11:03:27;;;;;;;;;3.00;3.00;;;;;29.69;21.46;101573.13;5032719;28;45529;-76
2021/05/31 11:05:53;;;;;;;;;3.50;3.50;;;;;29.68;22.20;101591.25;5030804;28;45541;-77
2021/05/31 11:08:29;;;;;;;;;5.75;3.25;;;;;29.63;22.37;101596.34;5032404;28;46518;-76
2021/05/31 11:11:00;;;;;;;;;6.75;5.00;;;;;29.51;22.05;101582.25;5031493;28;45593;-76
2021/05/31 11:13:26;;;;;;;;;4.00;4.00;;;;;29.49;22.46;101596.97;5034453;28;45394;-76
2021/05/31 11:16:08;;;;;;;;;2.00;2.00;;;;;29.45;22.28;101590.22;5032930;28;45256;-75
2021/05/31 11:18:44;;;;;;;;;5.00;5.00;;;;;29.37;22.61;101607.28;5032150;28;45597;-76
2021/05/31 11:21:22;;;;;;;;;5.25;4.50;;;;;29.30;22.30;101600.88;5032543;28;45389;-76
2021/05/31 11:23:55;;;;;;;;;5.50;4.50;;;;;29.13;22.16;101597.28;5033415;28;45600;-76
2021/05/31 11:26:21;;;;;;;;;4.50;4.50;;;;;28.88;22.28;101582.81;5017280;28;45399;-75
2021/05/31 11:28:46;;;;;;;;;7.50;3.75;;;;;28.65;22.21;101587.13;5034910;28;47257;-76
2021/05/31 11:31:11;;;;;;;;;4.00;3.25;;;;;28.39;22.60;101574.50;5031304;28;48012;-76
2021/05/31 11:33:37;;;;;;;;;5.25;5.00;;;;;28.34;23.28;101558.78;5030639;28;45604;-76
2021/05/31 11:36:03;;;;;;;;;3.25;3.25;;;;;28.56;23.04;101564.63;5031626;28;45448;-75
2021/05/31 11:38:29;;;;;;;;;5.00;3.00;;;;;28.58;23.27;101549.09;5027051;28;47078;-75
2021/05/31 11:40:54;;;;;;;;;3.50;3.50;;;;;28.52;23.36;101566.81;5034108;28;45391;-75
2021/05/31 11:43:20;;;;;;;;;5.00;5.00;;;;;28.37;23.19;101560.31;5032357;28;52350;-76
2021/05/31 11:45:46;;;;;;;;;6.25;5.00;;;;;28.26;23.67;101547.06;5032090;28;45396;-76
2021/05/31 11:48:17;;;;;;;;;3.75;3.75;;;;;28.20;23.57;101542.31;5031910;28;45887;-76
2021/05/31 11:50:44;;;;;;;;;5.75;5.25;;;;;28.14;23.46;101541.09;5032359;28;45186;-76